Time;durP1;ratioP1;P1;durP2;ratioP2;P2;SDS_P1;SDS_P2;PMS_P1;PMS_P2;Temp;Humidity;BMP_temperature;BMP_pressure;BME280_temperature;BME280_humidity;BME280_pressure;Samples;Min_cycle;Max_cycle;Signal;HPM_P1;HPM_P2
2021/06/09 00:02:05;;;;;;;6.10;2.92;;;18.90;99.90;;;;;;1901253;74;21104;-76
2021/06/09 00:04:33;;;;;;;3.95;2.65;;;18.90;99.90;;;;;;1899023;74;21538;-76
2021/06/09 00:07:00;;;;;;;5.15;2.50;;;18.90;99.90;;;;;;1900276;74;21100;-75
2021/06/09 00:09:28;;;;;;;6.42;2.70;;;18.90;99.90;;;;;;1899618;74;21088;-76
2021/06/09 00:11:55;;;;;;;5.35;2.77;;;18.80;99.90;;;;;;1899742;74;21264;-75
2021/06/09 00:14:23;;;;;;;3.50;2.55;;;18.90;99.90;;;;;;1902902;74;21084;-75
2021/06/09 00:16:50;;;;;;;3.45;2.52;;;18.90;99.90;;;;;;1892642;75;21558;-75
2021/06/09 00:19:18;;;;;;;4.15;2.72;;;18.90;99.90;;;;;;1899858;74;22173;-75
2021/06/09 00:21:48;;;;;;;6.60;2.87;;;18.80;99.90;;;;;;1899626;74;21113;-76
2021/06/09 00:24:18;;;;;;;5.12;2.80;;;18.70;99.90;;;;;;1899648;74;21089;-76
2021/06/09 00:26:45;;;;;;;4.22;2.60;;;18.70;99.90;;;;;;1899792;74;21184;-75
2021/06/09 00:29:14;;;;;;;4.85;2.98;;;18.70;99.90;;;;;;1899332;74;21166;-75
2021/06/09 00:31:42;;;;;;;6.03;2.95;;;18.70;99.90;;;;;;1898966;74;21120;-75
2021/06/09 00:34:09;;;;;;;7.92;2.90;;;18.60;99.90;;;;;;1902945;74;21562;-74
2021/06/09 00:36:37;;;;;;;4.55;2.58;;;18.70;99.90;;;;;;1899350;74;21097;-74
2021/06/09 00:39:06;;;;;;;5.22;3.20;;;18.80;99.90;;;;;;1899854;75;21145;-74
2021/06/09 00:41:38;;;;;;;4.25;3.12;;;18.70;99.90;;;;;;1899185;74;21195;-74
2021/06/09 00:44:06;;;;;;;5.20;2.95;;;18.70;99.90;;;;;;1900353;74;21100;-74
2021/06/09 00:46:39;;;;;;;4.95;2.83;;;18.30;99.90;;;;;;1901070;74;21346;-74
2021/06/09 00:49:07;;;;;;;6.78;3.17;;;18.40;99.90;;;;;;1900287;74;21061;-75
2021/06/09 00:51:36;;;;;;;7.10;3.15;;;18.40;99.90;;;;;;1898937;74;21186;-73
2021/06/09 00:54:05;;;;;;;4.05;2.90;;;18.40;99.90;;;;;;1900627;75;21049;-75
2021/06/09 00:56:35;;;;;;;3.25;2.62;;;18.30;99.90;;;;;;1897955;74;21145;-75
2021/06/09 00:59:05;;;;;;;8.10;3.17;;;18.30;99.90;;;;;;1900738;74;21224;-75
2021/06/09 01:01:34;;;;;;;3.25;2.80;;;18.30;99.90;;;;;;1901617;74;21065;-75
2021/06/09 01:04:02;;;;;;;4.05;3.30;;;18.20;99.90;;;;;;1888099;75;21170;-75
2021/06/09 01:06:29;;;;;;;7.12;2.90;;;18.30;99.90;;;;;;1900216;74;21104;-75
2021/06/09 01:08:57;;;;;;;4.72;3.00;;;18.30;99.90;;;;;;1900453;74;21092;-75
2021/06/09 01:11:26;;;;;;;5.10;2.80;;;18.50;99.90;;;;;;1903085;74;21151;-75
2021/06/09 01:13:55;;;;;;;4.08;3.17;;;18.50;99.90;;;;;;1902685;74;21555;-75
2021/06/09 01:16:24;;;;;;;4.58;3.25;;;18.40;99.90;;;;;;1898199;75;21114;-75
2021/06/09 01:18:53;;;;;;;3.52;2.80;;;18.30;99.90;;;;;;1900285;74;21158;-76
2021/06/09 01:21:31;;;;;;;4.60;3.30;;;18.30;99.90;;;;;;1899578;74;21154;-75
2021/06/09 01:23:59;;;;;;;3.95;3.40;;;18.30;99.90;;;;;;1899816;74;21673;-76
2021/06/09 01:26:30;;;;;;;14.87;3.77;;;18.20;99.90;;;;;;1900777;74;21174;-77
2021/06/09 01:28:59;;;;;;;5.47;3.52;;;18.20;99.90;;;;;;1899742;75;21203;-76
2021/06/09 01:31:28;;;;;;;4.75;3.58;;;18.10;99.90;;;;;;1902101;74;21112;-76
2021/06/09 01:34:03;;;;;;;5.72;3.72;;;18.20;99.90;;;;;;1900081;74;21096;-76
2021/06/09 01:36:25;;;;;;;7.08;3.27;;;18.10;99.90;;;;;;1898158;74;21158;-76
2021/06/09 01:38:53;;;;;;;5.05;3.37;;;18.20;99.90;;;;;;1899655;74;21088;-75
2021/06/09 01:41:22;;;;;;;6.55;3.37;;;18.20;99.90;;;;;;1900136;74;21177;-75
2021/06/09 01:43:52;;;;;;;4.10;3.45;;;18.20;99.90;;;;;;1899799;74;21064;-76
2021/06/09 01:46:21;;;;;;;4.80;3.30;;;18.00;99.90;;;;;;1899676;75;21080;-76
2021/06/09 01:48:49;;;;;;;3.87;3.12;;;17.70;99.90;;;;;;1898616;74;21503;-76
2021/06/09 01:51:18;;;;;;;4.47;3.55;;;17.70;99.90;;;;;;1901002;74;21041;-76
2021/06/09 01:53:46;;;;;;;3.98;3.25;;;17.80;99.90;;;;;;1900669;74;21111;-75
2021/06/09 01:56:14;;;;;;;6.15;3.85;;;17.80;99.90;;;;;;1887849;75;21017;-75
2021/06/09 01:58:42;;;;;;;4.45;3.37;;;17.90;99.90;;;;;;1900616;74;21096;-75
2021/06/09 02:01:11;;;;;;;5.70;3.67;;;17.70;99.90;;;;;;1901010;74;21100;-76
2021/06/09 02:03:39;;;;;;;5.00;3.40;;;17.80;99.90;;;;;;1900383;74;21127;-76
2021/06/09 02:06:06;;;;;;;4.15;3.25;;;17.80;99.90;;;;;;1900992;74;21045;-75
2021/06/09 02:08:34;;;;;;;7.17;3.77;;;17.80;99.90;;;;;;1900977;74;21064;-75
2021/06/09 02:11:01;;;;;;;4.10;3.60;;;17.70;99.90;;;;;;1901344;74;21029;-76
2021/06/09 02:13:31;;;;;;;5.60;4.03;;;17.90;99.90;;;;;;1899794;74;21046;-75
2021/06/09 02:16:00;;;;;;;5.30;3.62;;;18.10;99.90;;;;;;1900941;74;21045;-75
2021/06/09 02:18:28;;;;;;;6.92;3.80;;;18.20;99.90;;;;;;1900883;74;21468;-75
2021/06/09 02:20:58;;;;;;;6.45;3.98;;;18.10;99.90;;;;;;1898139;74;21039;-75
2021/06/09 02:23:38;;;;;;;6.37;4.33;;;18.00;99.90;;;;;;1901047;74;21060;-76
2021/06/09 02:26:03;;;;;;;5.72;4.42;;;18.10;99.90;;;;;;1899709;74;21100;-75
2021/06/09 02:28:33;;;;;;;7.53;4.45;;;18.10;99.90;;;;;;1902797;74;21212;-75
2021/06/09 02:31:01;;;;;;;5.35;3.90;;;18.20;99.90;;;;;;1899513;74;21105;-76
2021/06/09 02:33:29;;;;;;;11.08;4.40;;;18.10;99.90;;;;;;1893104;71;22202;-73
2021/06/09 02:35:58;;;;;;;5.83;3.95;;;18.10;99.90;;;;;;1899865;74;21213;-74
2021/06/09 02:38:26;;;;;;;9.65;4.40;;;18.10;99.90;;;;;;1876498;76;21097;-73
2021/06/09 02:40:58;;;;;;;5.72;4.20;;;18.10;99.90;;;;;;1890723;74;21128;-73
2021/06/09 02:43:32;;;;;;;4.67;4.05;;;18.10;99.90;;;;;;1883854;75;21141;-73
2021/06/09 02:46:15;;;;;;;5.65;4.12;;;18.20;99.90;;;;;;1879895;75;21575;-73
2021/06/09 02:48:45;;;;;;;4.97;4.03;;;18.20;99.90;;;;;;1890809;74;21157;-74
2021/06/09 02:51:16;;;;;;;6.37;4.00;;;18.00;99.90;;;;;;1876458;75;21062;-73
2021/06/09 02:53:49;;;;;;;7.83;4.30;;;18.00;99.90;;;;;;1888045;73;21120;-74
2021/06/09 02:56:29;;;;;;;5.15;3.90;;;18.10;99.90;;;;;;1878875;75;21108;-73
2021/06/09 02:59:20;;;;;;;5.72;4.03;;;18.00;99.90;;;;;;1875423;75;21622;-73
2021/06/09 03:01:54;;;;;;;5.12;4.10;;;17.90;99.90;;;;;;1866964;75;21192;-73
2021/06/09 03:04:46;;;;;;;5.42;4.53;;;17.90;99.90;;;;;;1876227;75;21123;-74
2021/06/09 03:07:25;;;;;;;5.55;4.40;;;17.90;99.90;;;;;;1829671;75;21136;-73
2021/06/09 03:10:08;;;;;;;5.12;4.42;;;18.00;99.90;;;;;;1875930;75;21579;-73
2021/06/09 03:12:46;;;;;;;6.50;4.20;;;18.00;99.90;;;;;;1879714;75;21545;-74
2021/06/09 03:15:16;;;;;;;4.92;4.10;;;18.10;99.90;;;;;;1878789;75;21140;-73
2021/06/09 03:17:47;;;;;;;5.65;4.60;;;18.10;99.90;;;;;;1882868;74;21112;-74
2021/06/09 03:20:20;;;;;;;5.08;3.95;;;18.00;99.90;;;;;;1876565;74;21509;-73
2021/06/09 03:23:12;;;;;;;7.17;5.00;;;18.20;99.90;;;;;;1881025;75;21060;-74
2021/06/09 03:25:52;;;;;;;5.70;5.03;;;18.20;99.90;;;;;;1875810;74;21034;-73
2021/06/09 03:28:31;;;;;;;7.87;4.33;;;18.20;99.90;;;;;;1898574;74;21056;-72
2021/06/09 03:31:01;;;;;;;6.62;4.60;;;18.20;99.90;;;;;;1881774;75;21148;-74
2021/06/09 03:33:32;;;;;;;6.87;4.75;;;18.20;99.90;;;;;;1887360;74;21077;-74
2021/06/09 03:36:11;;;;;;;5.22;4.47;;;18.20;99.90;;;;;;1896873;74;21042;-73
2021/06/09 03:38:51;;;;;;;5.90;4.10;;;18.40;99.90;;;;;;1853533;76;21128;-74
2021/06/09 03:41:20;;;;;;;5.33;4.75;;;18.50;99.90;;;;;;1881376;74;21110;-73
2021/06/09 03:43:51;;;;;;;5.85;4.62;;;18.40;99.90;;;;;;1869686;76;21094;-73
2021/06/09 03:46:22;;;;;;;7.40;4.50;;;18.30;99.90;;;;;;1881452;74;21074;-75
2021/06/09 03:48:51;;;;;;;6.12;5.08;;;18.20;99.90;;;;;;1883777;75;21170;-74
2021/06/09 03:51:21;;;;;;;6.25;4.58;;;18.40;99.90;;;;;;1868389;75;21107;-75
2021/06/09 03:53:50;;;;;;;6.78;5.17;;;18.30;99.90;;;;;;1879331;75;21576;-76
2021/06/09 03:56:19;;;;;;;5.85;4.70;;;18.30;99.90;;;;;;1880080;75;21060;-73
2021/06/09 03:58:50;;;;;;;9.05;4.65;;;18.30;99.90;;;;;;1886536;75;21108;-75
2021/06/09 04:01:18;;;;;;;7.50;5.45;;;18.40;99.90;;;;;;1880202;74;21137;-75
2021/06/09 04:03:48;;;;;;;7.37;5.15;;;18.30;99.90;;;;;;1879681;75;21184;-74
2021/06/09 04:06:18;;;;;;;5.47;4.97;;;18.30;99.90;;;;;;1883994;74;21536;-76
2021/06/09 04:08:48;;;;;;;6.53;5.12;;;18.30;99.90;;;;;;1877197;74;21050;-75
2021/06/09 04:11:18;;;;;;;6.25;4.92;;;18.40;99.90;;;;;;1884501;75;21007;-75
2021/06/09 04:13:47;;;;;;;6.60;5.37;;;18.50;99.90;;;;;;1881199;74;21094;-76
2021/06/09 04:16:17;;;;;;;5.87;5.22;;;18.50;99.90;;;;;;1882459;74;21544;-76
2021/06/09 04:18:47;;;;;;;9.25;5.10;;;18.50;99.90;;;;;;1880879;74;21111;-75
2021/06/09 04:21:15;;;;;;;9.58;5.37;;;18.60;99.90;;;;;;1878230;75;21031;-74
2021/06/09 04:23:43;;;;;;;7.90;5.70;;;18.70;99.90;;;;;;1884637;74;21150;-75
2021/06/09 04:26:14;;;;;;;7.60;5.30;;;18.80;99.90;;;;;;1886433;75;21104;-75
2021/06/09 04:28:44;;;;;;;10.03;5.40;;;18.80;99.90;;;;;;1881086;75;21183;-76
2021/06/09 04:31:15;;;;;;;6.62;5.25;;;18.90;99.90;;;;;;1883944;74;21113;-75
2021/06/09 04:33:48;;;;;;;8.43;5.72;;;18.80;99.90;;;;;;1883741;74;21248;-73
2021/06/09 04:36:16;;;;;;;10.08;6.33;;;18.80;99.90;;;;;;1883941;75;21623;-74
2021/06/09 04:38:44;;;;;;;8.60;6.17;;;18.80;99.90;;;;;;1885138;74;21176;-74
2021/06/09 04:41:12;;;;;;;10.00;6.37;;;18.80;99.90;;;;;;1875292;75;21152;-75
2021/06/09 04:43:40;;;;;;;11.12;6.95;;;18.90;99.90;;;;;;1882470;74;21199;-76
2021/06/09 04:46:08;;;;;;;8.80;6.60;;;18.80;99.90;;;;;;1884505;75;21235;-76
2021/06/09 04:48:36;;;;;;;7.17;6.35;;;18.90;99.90;;;;;;1879738;74;21192;-75
2021/06/09 04:51:03;;;;;;;10.40;6.55;;;18.80;99.90;;;;;;1875662;74;21109;-75
2021/06/09 04:53:31;;;;;;;9.38;6.53;;;18.90;99.90;;;;;;1883718;75;21118;-75
2021/06/09 04:55:58;;;;;;;13.32;6.67;;;18.90;99.90;;;;;;1881073;75;21106;-75
2021/06/09 04:58:26;;;;;;;8.95;7.03;;;19.00;99.90;;;;;;1881242;74;21639;-76
2021/06/09 05:00:54;;;;;;;13.60;6.50;;;19.10;99.90;;;;;;1885884;74;21105;-75
2021/06/09 05:03:22;;;;;;;11.53;6.00;;;19.20;99.90;;;;;;1884563;74;21226;-75
2021/06/09 05:05:50;;;;;;;10.23;6.70;;;19.30;99.90;;;;;;1886602;75;21560;-76
2021/06/09 05:08:18;;;;;;;10.25;6.28;;;19.40;99.90;;;;;;1888983;75;21101;-75
2021/06/09 05:10:47;;;;;;;10.75;6.50;;;19.20;99.90;;;;;;1887275;74;21163;-76
2021/06/09 05:13:20;;;;;;;7.95;6.55;;;19.20;99.90;;;;;;1879052;76;21192;-77
2021/06/09 05:15:53;;;;;;;10.20;5.97;;;19.20;99.90;;;;;;1881167;74;21102;-76
2021/06/09 05:18:27;;;;;;;7.33;6.53;;;19.10;99.90;;;;;;1882244;75;21177;-74
2021/06/09 05:20:55;;;;;;;8.50;7.10;;;19.30;99.90;;;;;;1886290;74;21093;-75
2021/06/09 05:23:32;;;;;;;7.05;6.00;;;19.30;99.90;;;;;;1887994;75;21138;-73
2021/06/09 05:26:01;;;;;;;7.33;5.47;;;19.50;99.90;;;;;;1885887;75;21042;-73
2021/06/09 05:28:32;;;;;;;6.70;5.20;;;19.60;99.90;;;;;;1889123;75;21169;-72
2021/06/09 05:31:01;;;;;;;8.78;5.70;;;19.80;99.90;;;;;;1879561;74;22412;-73
2021/06/09 05:33:31;;;;;;;6.17;5.40;;;19.90;99.90;;;;;;1885537;75;21184;-74
2021/06/09 05:35:59;;;;;;;7.90;6.00;;;19.90;99.90;;;;;;1891083;75;21070;-73
2021/06/09 05:38:27;;;;;;;7.97;5.40;;;20.00;99.90;;;;;;1891112;74;21122;-72
2021/06/09 05:40:57;;;;;;;9.55;6.28;;;20.00;99.90;;;;;;1886755;75;21191;-72
2021/06/09 05:43:45;;;;;;;10.82;6.12;;;19.90;99.90;;;;;;1875411;74;21140;-73
2021/06/09 05:46:13;;;;;;;5.90;5.30;;;19.90;99.90;;;;;;1882365;75;21041;-75
2021/06/09 05:48:43;;;;;;;8.70;5.60;;;20.10;99.90;;;;;;1885185;74;21105;-72
2021/06/09 05:51:13;;;;;;;9.28;6.20;;;20.20;99.90;;;;;;1884965;74;21050;-73
2021/06/09 05:53:41;;;;;;;7.53;5.60;;;20.30;99.90;;;;;;1924035;74;21125;-73
2021/06/09 05:56:09;;;;;;;12.20;6.80;;;20.30;99.90;;;;;;1924309;74;21506;-72
2021/06/09 05:58:40;;;;;;;10.28;9.15;;;20.40;99.90;;;;;;1903347;74;21116;-73
2021/06/09 06:01:10;;;;;;;7.10;6.12;;;20.50;99.90;;;;;;1903835;74;21573;-78
2021/06/09 06:03:40;;;;;;;7.05;6.28;;;20.60;99.90;;;;;;1916722;73;21202;-69
2021/06/09 06:06:10;;;;;;;6.67;5.97;;;20.60;99.90;;;;;;1915095;74;21139;-79
2021/06/09 06:08:40;;;;;;;7.15;5.83;;;20.70;99.90;;;;;;1918442;74;21178;-71
2021/06/09 06:11:14;;;;;;;8.05;5.97;;;20.80;99.90;;;;;;1896760;74;22209;-72
2021/06/09 06:13:44;;;;;;;7.58;6.78;;;20.90;99.90;;;;;;1904434;74;21559;-72
2021/06/09 06:16:16;;;;;;;7.50;6.12;;;20.90;99.90;;;;;;1918239;74;21050;-74
2021/06/09 06:18:45;;;;;;;11.20;7.15;;;20.90;99.90;;;;;;1918179;74;21029;-71
2021/06/09 06:21:15;;;;;;;9.75;7.20;;;20.90;99.90;;;;;;1902529;74;21101;-69
2021/06/09 06:23:43;;;;;;;10.85;7.17;;;21.00;99.90;;;;;;1917489;73;21592;-70
2021/06/09 06:26:12;;;;;;;10.68;7.20;;;21.00;99.90;;;;;;1919040;74;21112;-70
2021/06/09 06:28:41;;;;;;;10.63;6.35;;;21.10;99.90;;;;;;1902278;74;21148;-69
2021/06/09 06:31:14;;;;;;;11.73;6.92;;;21.30;99.90;;;;;;1912683;74;21101;-71
2021/06/09 06:33:44;;;;;;;11.00;6.55;;;21.30;99.90;;;;;;1923169;74;21121;-70
2021/06/09 06:36:13;;;;;;;9.60;6.67;;;21.40;99.90;;;;;;1912706;74;21690;-70
2021/06/09 06:38:41;;;;;;;9.45;6.45;;;21.40;99.90;;;;;;1917791;74;21046;-70
2021/06/09 06:41:10;;;;;;;10.68;6.08;;;21.50;99.90;;;;;;1912267;74;21077;-70
2021/06/09 06:43:39;;;;;;;9.63;6.12;;;21.50;99.90;;;;;;1912193;74;21615;-69
2021/06/09 06:46:09;;;;;;;7.83;6.30;;;21.60;99.90;;;;;;1922558;74;21123;-69
2021/06/09 06:48:37;;;;;;;7.28;5.55;;;21.60;99.90;;;;;;1913831;74;21516;-69
2021/06/09 06:51:05;;;;;;;7.08;5.47;;;21.60;99.90;;;;;;1905028;74;21073;-69
2021/06/09 06:53:33;;;;;;;10.38;5.45;;;21.70;99.90;;;;;;1923065;73;21051;-69
2021/06/09 06:56:02;;;;;;;9.65;5.53;;;21.80;99.90;;;;;;1911345;74;21018;-69
2021/06/09 06:58:33;;;;;;;7.53;5.35;;;21.90;99.90;;;;;;1912148;74;21010;-67
2021/06/09 07:01:01;;;;;;;8.68;5.03;;;21.90;99.90;;;;;;1906581;74;21113;-68
2021/06/09 07:03:30;;;;;;;10.00;4.70;;;22.00;99.90;;;;;;1904633;74;21149;-68
2021/06/09 07:05:58;;;;;;;10.32;4.40;;;22.10;99.90;;;;;;1914254;74;21105;-68
2021/06/09 07:08:26;;;;;;;5.67;2.45;;;22.10;99.90;;;;;;1917428;74;21038;-68
2021/06/09 07:10:54;;;;;;;3.55;2.12;;;22.20;99.90;;;;;;1916784;74;21535;-67
2021/06/09 07:13:23;;;;;;;4.97;2.25;;;22.20;99.90;;;;;;1897592;74;21116;-69
2021/06/09 07:15:53;;;;;;;3.70;2.45;;;22.30;99.90;;;;;;1884628;75;21100;-68
2021/06/09 07:18:24;;;;;;;2.87;1.70;;;22.30;99.90;;;;;;1874973;75;21747;-68
2021/06/09 07:20:51;;;;;;;3.75;2.10;;;22.30;99.90;;;;;;1909004;73;21175;-66
2021/06/09 07:23:20;;;;;;;7.37;2.08;;;22.20;99.90;;;;;;1917642;74;21113;-69
2021/06/09 07:25:49;;;;;;;4.08;2.20;;;22.30;99.90;;;;;;1905762;74;21081;-70
2021/06/09 07:28:19;;;;;;;4.50;1.77;;;22.40;99.90;;;;;;1899896;74;21073;-72
2021/06/09 07:30:49;;;;;;;6.70;2.05;;;22.50;99.90;;;;;;1920372;74;21057;-71
2021/06/09 07:33:17;;;;;;;6.50;2.02;;;22.50;99.90;;;;;;1906878;73;21073;-71
2021/06/09 07:35:44;;;;;;;7.47;2.00;;;22.60;99.90;;;;;;1913452;74;21050;-71
2021/06/09 07:38:20;;;;;;;3.80;1.95;;;22.60;99.90;;;;;;1916780;74;21094;-71
2021/06/09 07:40:51;;;;;;;6.08;1.98;;;22.70;99.90;;;;;;1920789;74;21096;-71
2021/06/09 07:43:24;;;;;;;3.77;1.98;;;22.70;99.90;;;;;;1903467;74;21183;-70
2021/06/09 07:45:53;;;;;;;4.83;1.85;;;22.80;99.60;;;;;;1906510;74;21512;-71
2021/06/09 07:48:24;;;;;;;2.45;1.70;;;22.80;99.20;;;;;;1915990;74;21487;-70
2021/06/09 07:50:54;;;;;;;3.95;2.10;;;22.80;99.00;;;;;;1913623;74;21034;-73
2021/06/09 07:53:25;;;;;;;4.53;1.95;;;22.90;99.80;;;;;;1899224;74;21090;-68
2021/06/09 07:55:53;;;;;;;3.30;1.90;;;22.90;98.80;;;;;;1923944;74;21137;-67
2021/06/09 07:58:22;;;;;;;3.35;1.47;;;22.90;99.40;;;;;;1902682;74;21093;-68
2021/06/09 08:00:53;;;;;;;2.35;1.47;;;23.00;99.30;;;;;;1914964;74;21133;-68
2021/06/09 08:03:26;;;;;;;2.02;1.50;;;23.00;98.90;;;;;;1921642;74;21097;-68
2021/06/09 08:05:56;;;;;;;3.20;1.52;;;23.00;99.00;;;;;;1915917;74;21034;-67
2021/06/09 08:08:25;;;;;;;5.22;1.35;;;23.10;98.20;;;;;;1914086;74;21700;-68
2021/06/09 08:10:53;;;;;;;3.80;1.40;;;23.10;98.90;;;;;;1893949;74;21074;-70
2021/06/09 08:13:20;;;;;;;1.87;1.07;;;23.10;97.50;;;;;;1901332;74;21428;-69
2021/06/09 08:15:49;;;;;;;5.03;1.40;;;23.20;97.40;;;;;;1918898;74;21519;-67
2021/06/09 08:18:16;;;;;;;3.22;1.40;;;23.30;98.10;;;;;;1910966;74;21135;-69
2021/06/09 08:20:56;;;;;;;3.22;1.20;;;23.40;98.20;;;;;;1915527;74;21105;-70
2021/06/09 08:23:23;;;;;;;2.55;1.40;;;23.30;96.50;;;;;;1919799;74;21061;-69
2021/06/09 08:25:51;;;;;;;2.15;1.30;;;23.40;96.90;;;;;;1918418;74;20998;-70
2021/06/09 08:28:18;;;;;;;5.15;1.10;;;23.40;96.30;;;;;;1920860;74;21034;-69
2021/06/09 08:30:46;;;;;;;6.33;1.30;;;23.50;96.20;;;;;;1912152;74;21641;-70
2021/06/09 08:33:13;;;;;;;3.45;1.15;;;23.50;96.30;;;;;;1905265;73;21124;-70
2021/06/09 08:35:41;;;;;;;4.35;1.30;;;23.60;97.30;;;;;;1918256;74;21077;-69
2021/06/09 08:38:08;;;;;;;2.17;1.22;;;23.70;97.50;;;;;;1923962;74;21062;-70
2021/06/09 08:40:36;;;;;;;3.42;1.35;;;23.80;97.00;;;;;;1910420;74;21152;-70
2021/06/09 08:43:05;;;;;;;2.52;1.30;;;23.90;96.80;;;;;;1920654;74;21142;-69
2021/06/09 08:45:33;;;;;;;3.85;1.45;;;24.00;97.90;;;;;;1927594;74;21116;-69
2021/06/09 08:48:01;;;;;;;4.75;1.30;;;24.00;97.00;;;;;;1924822;74;21093;-69
2021/06/09 08:50:29;;;;;;;5.87;1.25;;;24.00;97.30;;;;;;1905211;74;21127;-69
2021/06/09 08:53:00;;;;;;;2.45;1.40;;;24.00;97.70;;;;;;1907825;73;22306;-69
2021/06/09 08:55:27;;;;;;;4.28;1.40;;;24.10;97.30;;;;;;1917514;74;21089;-75
2021/06/09 08:57:55;;;;;;;3.92;1.45;;;24.20;97.10;;;;;;1917654;74;21104;-68
2021/06/09 09:00:23;;;;;;;2.92;1.42;;;24.20;97.00;;;;;;1923521;74;21093;-67
2021/06/09 09:02:51;;;;;;;3.12;1.65;;;24.30;96.90;;;;;;1897068;74;21152;-67
2021/06/09 09:05:19;;;;;;;3.83;1.57;;;24.30;97.10;;;;;;1897093;74;21250;-72
2021/06/09 09:07:48;;;;;;;4.72;1.65;;;24.30;97.30;;;;;;1908156;74;21069;-70
2021/06/09 09:10:16;;;;;;;3.67;1.70;;;24.40;96.40;;;;;;1915890;74;21105;-67
2021/06/09 09:12:43;;;;;;;3.70;1.40;;;24.50;97.00;;;;;;1912784;73;21195;-74
2021/06/09 09:15:11;;;;;;;5.33;1.50;;;24.40;96.60;;;;;;1917444;74;21030;-72
2021/06/09 09:18:03;;;;;;;2.05;1.50;;;24.40;96.80;;;;;;1913328;74;21658;-72
2021/06/09 09:20:36;;;;;;;2.62;1.80;;;24.40;98.30;;;;;;1922536;74;21101;-72
2021/06/09 09:23:06;;;;;;;4.05;1.95;;;24.40;98.10;;;;;;1911585;74;21113;-72
2021/06/09 09:25:34;;;;;;;2.70;1.50;;;24.40;97.80;;;;;;1898058;74;21096;-72
2021/06/09 09:28:04;;;;;;;3.00;1.80;;;24.40;98.40;;;;;;1926775;74;21077;-71
2021/06/09 09:30:34;;;;;;;9.50;1.72;;;24.50;97.80;;;;;;1915942;74;21092;-73
2021/06/09 09:33:07;;;;;;;5.25;1.80;;;24.50;96.30;;;;;;1924494;74;21109;-71
2021/06/09 09:35:37;;;;;;;3.83;2.20;;;24.50;96.40;;;;;;1908159;74;21070;-72
2021/06/09 09:38:14;;;;;;;3.17;1.77;;;24.50;96.40;;;;;;1904321;74;21097;-72
2021/06/09 09:41:06;;;;;;;3.58;2.12;;;24.60;96.40;;;;;;1907824;74;21653;-71
2021/06/09 09:43:54;;;;;;;3.25;1.70;;;24.50;96.20;;;;;;1903498;74;21187;-72
2021/06/09 09:46:34;;;;;;;2.35;1.47;;;24.60;98.60;;;;;;1897774;74;21179;-72
2021/06/09 09:49:11;;;;;;;2.85;1.70;;;24.70;98.60;;;;;;1902031;74;21134;-72
2021/06/09 09:51:55;;;;;;;4.97;2.00;;;24.70;98.50;;;;;;1908565;74;21117;-72
2021/06/09 09:54:34;;;;;;;4.05;1.90;;;24.70;98.80;;;;;;1905068;74;21152;-71
2021/06/09 09:57:04;;;;;;;2.67;1.70;;;24.80;98.20;;;;;;1856099;76;21316;-72
2021/06/09 09:59:32;;;;;;;2.62;1.62;;;24.80;97.80;;;;;;1915426;74;21630;-73
2021/06/09 10:02:05;;;;;;;2.35;1.67;;;24.90;97.90;;;;;;1899070;74;21074;-74
2021/06/09 10:04:35;;;;;;;5.72;2.17;;;25.00;98.00;;;;;;1922650;74;21080;-72
2021/06/09 10:07:07;;;;;;;2.25;1.50;;;25.00;98.20;;;;;;1921413;74;21113;-72
2021/06/09 10:10:00;;;;;;;3.55;2.30;;;25.10;96.90;;;;;;1914149;74;21523;-73
2021/06/09 10:12:27;;;;;;;6.65;1.65;;;25.10;98.10;;;;;;1898897;74;21124;-72
2021/06/09 10:14:56;;;;;;;4.75;2.05;;;25.20;97.20;;;;;;1963255;72;21084;-71
2021/06/09 10:17:29;;;;;;;5.20;1.80;;;25.20;97.90;;;;;;1961254;72;21065;-71
2021/06/09 10:20:00;;;;;;;6.40;1.82;;;25.30;97.90;;;;;;1971054;71;21061;-71
2021/06/09 10:22:32;;;;;;;3.67;2.12;;;25.30;98.50;;;;;;1955332;71;21194;-71
2021/06/09 10:25:01;;;;;;;5.07;1.80;;;25.40;98.30;;;;;;1950661;71;21104;-73
2021/06/09 10:27:37;;;;;;;3.52;1.87;;;25.40;97.20;;;;;;1966316;71;21087;-71
2021/06/09 10:30:19;;;;;;;3.85;1.95;;;25.50;96.50;;;;;;1939377;73;21066;-71
2021/06/09 10:32:58;;;;;;;3.25;2.05;;;25.50;96.20;;;;;;1954815;71;21068;-71
2021/06/09 10:35:38;;;;;;;2.60;1.65;;;25.60;97.00;;;;;;1949448;72;21024;-72
2021/06/09 10:38:06;;;;;;;4.37;2.00;;;25.60;97.00;;;;;;1962540;73;21512;-71
2021/06/09 10:40:34;;;;;;;2.58;2.00;;;25.70;97.00;;;;;;1938093;73;21097;-71
2021/06/09 10:43:05;;;;;;;3.42;1.75;;;25.80;96.90;;;;;;1965739;71;21468;-71
2021/06/09 10:45:36;;;;;;;3.52;2.27;;;25.80;96.30;;;;;;1882509;75;21152;-71
2021/06/09 10:48:04;;;;;;;3.15;1.92;;;25.80;95.90;;;;;;1871956;76;21227;-72
2021/06/09 10:50:33;;;;;;;1.80;1.60;;;25.90;96.00;;;;;;1854780;76;21066;-71
2021/06/09 10:53:06;;;;;;;2.87;1.82;;;25.90;95.80;;;;;;1838702;76;21227;-71
2021/06/09 10:55:30;;;;;;;3.33;2.10;;;26.00;95.40;;;;;;1829574;76;21100;-72
2021/06/09 10:57:59;;;;;;;2.10;1.77;;;26.00;94.70;;;;;;1855908;76;21077;-73
2021/06/09 11:00:27;;;;;;;3.62;1.70;;;26.10;95.10;;;;;;1827058;76;21104;-72
2021/06/09 11:02:59;;;;;;;2.87;1.90;;;26.10;94.20;;;;;;1857130;75;21807;-73
2021/06/09 11:05:28;;;;;;;6.30;2.37;;;26.20;94.20;;;;;;1851328;77;21058;-73
2021/06/09 11:07:56;;;;;;;5.30;1.72;;;26.20;95.50;;;;;;1815984;76;21109;-73
2021/06/09 11:10:38;;;;;;;3.47;1.70;;;26.30;93.70;;;;;;1841238;76;21142;-74
2021/06/09 11:13:07;;;;;;;3.77;1.85;;;26.30;93.10;;;;;;1829457;76;21081;-73
2021/06/09 11:15:35;;;;;;;3.60;1.90;;;26.40;94.60;;;;;;1843079;76;21524;-73
2021/06/09 11:18:14;;;;;;;6.62;2.25;;;26.40;93.10;;;;;;1854005;76;21088;-73
2021/06/09 11:20:43;;;;;;;4.97;2.08;;;26.40;94.30;;;;;;1807397;79;22036;-72
2021/06/09 11:23:23;;;;;;;5.33;2.10;;;26.40;95.00;;;;;;1788946;77;21174;-74
2021/06/09 11:25:51;;;;;;;2.77;1.40;;;26.40;94.60;;;;;;1809344;77;21079;-74
2021/06/09 11:28:39;;;;;;;5.67;1.67;;;26.30;93.60;;;;;;1810288;79;21083;-74
2021/06/09 11:31:13;;;;;;;2.27;1.60;;;26.30;94.10;;;;;;1806042;78;21100;-73
2021/06/09 11:33:46;;;;;;;2.42;1.50;;;26.30;93.60;;;;;;1809999;77;21100;-73
2021/06/09 11:36:22;;;;;;;1.98;1.57;;;26.20;93.20;;;;;;1815190;77;21048;-73
2021/06/09 11:38:52;;;;;;;2.50;1.70;;;26.10;93.50;;;;;;1809938;79;21475;-74
2021/06/09 11:41:38;;;;;;;3.42;1.80;;;26.10;94.30;;;;;;1764487;79;21608;-75
2021/06/09 11:44:06;;;;;;;3.33;1.80;;;26.20;94.10;;;;;;1808107;79;21118;-75
2021/06/09 11:46:38;;;;;;;3.95;2.00;;;26.30;95.50;;;;;;1796153;78;22075;-75
2021/06/09 11:49:14;;;;;;;4.95;1.80;;;26.30;94.10;;;;;;1778788;79;21858;-74
2021/06/09 11:51:44;;;;;;;2.92;1.45;;;26.40;95.50;;;;;;1786572;78;21136;-80
2021/06/09 11:54:17;;;;;;;2.60;1.67;;;26.50;95.80;;;;;;1842015;76;21133;-76
2021/06/09 11:56:50;;;;;;;3.90;1.92;;;26.60;95.50;;;;;;1838674;76;21094;-79
2021/06/09 11:59:25;;;;;;;4.15;2.00;;;26.60;94.70;;;;;;1844689;76;21158;-80
2021/06/09 12:01:54;;;;;;;3.95;2.05;;;26.60;94.90;;;;;;1837492;76;21149;-78
2021/06/09 12:04:33;;;;;;;4.12;1.98;;;26.60;95.30;;;;;;1842752;76;21097;-80
2021/06/09 12:07:05;;;;;;;4.65;1.95;;;26.50;94.50;;;;;;1839224;76;21117;-78
2021/06/09 12:09:33;;;;;;;;;;;26.50;95.20;;;;;;1824468;76;21122;-79
2021/06/09 12:12:12;;;;;;;2.10;1.77;;;26.50;95.10;;;;;;1837496;76;20404;-81
2021/06/09 12:14:46;;;;;;;3.55;2.02;;;26.60;94.80;;;;;;1845625;76;21163;-81
2021/06/09 12:17:22;;;;;;;2.25;1.90;;;26.60;93.10;;;;;;1863011;76;21095;-81
2021/06/09 12:20:02;;;;;;;3.40;2.40;;;26.60;93.30;;;;;;1830815;76;21071;-80
2021/06/09 12:22:32;;;;;;;5.37;2.15;;;26.60;93.20;;;;;;1852198;76;21224;-77
2021/06/09 12:25:12;;;;;;;4.60;2.80;;;26.60;93.60;;;;;;1853925;76;21185;-79
2021/06/09 12:27:42;;;;;;;3.33;2.17;;;26.60;92.70;;;;;;1843910;76;21860;-81
2021/06/09 12:30:13;;;;;;;4.17;2.92;;;26.60;92.70;;;;;;1832285;76;21110;-78
2021/06/09 12:32:41;;;;;;;6.85;2.00;;;26.60;92.40;;;;;;1832130;75;21149;-77
2021/06/09 12:35:11;;;;;;;3.37;2.50;;;26.80;92.80;;;;;;1845654;76;21202;-78
2021/06/09 12:37:47;;;;;;;4.70;2.52;;;26.90;95.00;;;;;;1843282;76;21394;-83
2021/06/09 12:40:20;;;;;;;4.58;2.00;;;27.00;94.00;;;;;;1840380;76;21383;-84
2021/06/09 12:42:50;;;;;;;2.98;2.27;;;27.00;92.30;;;;;;1836747;76;21383;-82
2021/06/09 12:45:19;;;;;;;2.70;2.20;;;27.00;91.50;;;;;;1845339;76;21088;-82
2021/06/09 12:47:48;;;;;;;2.85;2.02;;;27.00;91.70;;;;;;1840484;76;21712;-81
2021/06/09 12:50:22;;;;;;;3.30;2.60;;;27.00;93.00;;;;;;1837448;76;21127;-82
2021/06/09 12:52:54;;;;;;;5.28;2.00;;;27.00;93.50;;;;;;1840575;78;21149;-82
2021/06/09 12:55:31;;;;;;;3.87;1.98;;;27.00;93.60;;;;;;1835592;76;21222;-80
2021/06/09 12:57:59;;;;;;;3.83;1.90;;;26.90;93.00;;;;;;1843310;78;21117;-80
2021/06/09 13:00:41;;;;;;;3.02;1.92;;;26.90;93.70;;;;;;1845559;76;21051;-82
2021/06/09 13:03:21;;;;;;;3.65;1.92;;;26.70;93.60;;;;;;1840652;76;21253;-81
2021/06/09 13:06:12;;;;;;;2.30;2.10;;;26.60;94.50;;;;;;1844524;76;21100;-80